This is the latest recevied weather packets stored in our database for station/object Krauchnws. If no packets are shown the sender has not sent any weather packets the latest 1 day(s).
| Time | Temp. | Humidity | Pressure | Rain* | Wind** | Luminosity | Snow |
|---|---|---|---|---|---|---|---|
| 1777989730 | 14.44° C | 78% | 1005.9 hPa | 0.51 mm | 1.79 m/s, 355° | - | - |
| 1777987930 | 13.89° C | 82% | 1006 hPa | 0.51 mm | 4.02 m/s, 317° | - | - |
| 1777986130 | 13.33° C | 85% | 1006.2 hPa | 0.51 mm | 3.13 m/s, 326° | - | - |
| 1777984330 | 13.33° C | 90% | 1006.7 hPa | 0.51 mm | 1.79 m/s, 282° | - | - |
| 1777982530 | 13.33° C | 86% | 1006.9 hPa | 0.25 mm | 1.34 m/s, 238° | - | - |
| 1777980730 | 14.44° C | 78% | 1006.9 hPa | 0 mm | 4.02 m/s, 231° | - | - |
| 1777978931 | 15° C | 74% | 1006.3 hPa | 0 mm | 2.24 m/s, 211° | - | - |
| 1777977131 | 15° C | 72% | 1006.5 hPa | 0 mm | 2.68 m/s, 187° | - | - |
| 1777975332 | 14.44° C | 74% | 1006.5 hPa | 0 mm | 4.47 m/s, 274° | - | - |
| 1777973532 | 14.44° C | 73% | 1006.7 hPa | 0 mm | 3.58 m/s, 261° | - | - |
| 1777971732 | 14.44° C | 74% | 1006.9 hPa | 0 mm | 3.13 m/s, 259° | - | - |
| 1777969931 | 14.44° C | 74% | 1006.8 hPa | 0 mm | 0.89 m/s, 259° | - | - |
| 1777968131 | 13.89° C | 74% | 1007 hPa | 0 mm | 1.79 m/s, 254° | - | - |
| 1777966330 | 13.33° C | 77% | 1007.1 hPa | 0 mm | 0.89 m/s, 259° | - | - |
| 1777964532 | 12.22° C | 81% | 1007.6 hPa | 0 mm | 1.34 m/s, 254° | - | - |
| 1777962731 | 11.67° C | 82% | 1007.5 hPa | 0 mm | 0.89 m/s, 265° | - | - |
| 1777960932 | 10° C | 86% | 1007.7 hPa | 0 mm | 0.89 m/s, 285° | - | - |
| 1777959131 | 8.89° C | 90% | 1007.6 hPa | 0 mm | 0 m/s | - | - |
| 1777957331 | 7.78° C | 89% | 1007.5 hPa | 0 mm | 0.45 m/s, 317° | - | - |
| 1777955531 | 7.22° C | 91% | 1007.6 hPa | 0 mm | 0.45 m/s, 298° | - | - |
| 1777953731 | 7.22° C | 91% | 1008.1 hPa | 0 mm | 0.45 m/s, 298° | - | - |
| 1777951931 | 7.22° C | 90% | 1007.9 hPa | 0 mm | 0 m/s | - | - |
| 1777950133 | 7.78° C | 89% | 1008.2 hPa | 0 mm | 0 m/s | - | - |
* Rain since midnight (hover to see other rain measurements)
** Current wind speed in m/s (hover to see current wind gust speed)